sensor_id;sensor_type;location;lat;lon;timestamp;temperature;humidity
3792;DHT22;1911;53.768;11.474;2022-10-16T00:00:03;14.20;99.90
3792;DHT22;1911;53.768;11.474;2022-10-16T00:02:29;14.20;99.90
3792;DHT22;1911;53.768;11.474;2022-10-16T00:04:54;14.10;99.90
3792;DHT22;1911;53.768;11.474;2022-10-16T00:07:20;14.20;99.90
3792;DHT22;1911;53.768;11.474;2022-10-16T00:09:46;14.20;99.90
3792;DHT22;1911;53.768;11.474;2022-10-16T00:12:11;14.10;99.90
3792;DHT22;1911;53.768;11.474;2022-10-16T00:14:37;14.10;99.90
3792;DHT22;1911;53.768;11.474;2022-10-16T00:17:02;14.00;99.90
3792;DHT22;1911;53.768;11.474;2022-10-16T00:19:28;14.00;99.90
3792;DHT22;1911;53.768;11.474;2022-10-16T00:21:54;14.00;99.90
3792;DHT22;1911;53.768;11.474;2022-10-16T00:24:19;14.00;99.90
3792;DHT22;1911;53.768;11.474;2022-10-16T00:26:45;13.90;99.90
3792;DHT22;1911;53.768;11.474;2022-10-16T00:29:14;13.90;99.90
3792;DHT22;1911;53.768;11.474;2022-10-16T00:31:40;13.90;99.90
3792;DHT22;1911;53.768;11.474;2022-10-16T00:34:05;13.90;99.90
3792;DHT22;1911;53.768;11.474;2022-10-16T00:36:31;13.90;99.90
3792;DHT22;1911;53.768;11.474;2022-10-16T00:38:57;13.90;99.90
3792;DHT22;1911;53.768;11.474;2022-10-16T00:41:25;13.80;99.90
3792;DHT22;1911;53.768;11.474;2022-10-16T00:43:56;13.80;99.90
3792;DHT22;1911;53.768;11.474;2022-10-16T00:49:12;13.70;99.90
3792;DHT22;1911;53.768;11.474;2022-10-16T00:51:56;13.80;99.90
3792;DHT22;1911;53.768;11.474;2022-10-16T00:54:28;13.80;99.90
3792;DHT22;1911;53.768;11.474;2022-10-16T00:56:55;13.70;99.90
3792;DHT22;1911;53.768;11.474;2022-10-16T00:59:33;13.70;99.90
3792;DHT22;1911;53.768;11.474;2022-10-16T01:12:27;13.70;99.90
3792;DHT22;1911;53.768;11.474;2022-10-16T01:15:06;13.70;99.90
3792;DHT22;1911;53.768;11.474;2022-10-16T01:17:45;13.70;99.90
3792;DHT22;1911;53.768;11.474;2022-10-16T01:20:29;13.80;99.90
3792;DHT22;1911;53.768;11.474;2022-10-16T01:23:09;13.80;99.90
3792;DHT22;1911;53.768;11.474;2022-10-16T01:28:42;13.80;99.90
3792;DHT22;1911;53.768;11.474;2022-10-16T01:31:11;13.70;99.90
3792;DHT22;1911;53.768;11.474;2022-10-16T01:33:42;13.80;99.90
3792;DHT22;1911;53.768;11.474;2022-10-16T01:36:31;13.70;99.90
3792;DHT22;1911;53.768;11.474;2022-10-16T01:39:01;13.70;99.90
3792;DHT22;1911;53.768;11.474;2022-10-16T01:41:40;13.70;99.90
3792;DHT22;1911;53.768;11.474;2022-10-16T01:44:31;13.70;99.90
3792;DHT22;1911;53.768;11.474;2022-10-16T01:46:57;13.70;99.90
3792;DHT22;1911;53.768;11.474;2022-10-16T01:49:27;13.60;99.90
3792;DHT22;1911;53.768;11.474;2022-10-16T01:51:56;13.60;99.90
3792;DHT22;1911;53.768;11.474;2022-10-16T01:54:25;13.60;99.90
3792;DHT22;1911;53.768;11.474;2022-10-16T01:56:54;13.60;99.90
3792;DHT22;1911;53.768;11.474;2022-10-16T01:59:23;13.60;99.90
3792;DHT22;1911;53.768;11.474;2022-10-16T02:01:54;13.60;99.90
3792;DHT22;1911;53.768;11.474;2022-10-16T02:07:07;13.50;99.90
3792;DHT22;1911;53.768;11.474;2022-10-16T02:09:34;13.50;99.90
3792;DHT22;1911;53.768;11.474;2022-10-16T02:12:03;13.40;99.90
3792;DHT22;1911;53.768;11.474;2022-10-16T02:14:30;13.40;99.90
3792;DHT22;1911;53.768;11.474;2022-10-16T02:16:56;13.40;99.90
3792;DHT22;1911;53.768;11.474;2022-10-16T02:19:22;13.40;99.90
3792;DHT22;1911;53.768;11.474;2022-10-16T02:21:54;13.40;99.90
3792;DHT22;1911;53.768;11.474;2022-10-16T02:24:32;13.30;99.90
3792;DHT22;1911;53.768;11.474;2022-10-16T02:29:40;13.30;99.90
3792;DHT22;1911;53.768;11.474;2022-10-16T02:32:10;13.30;99.90
3792;DHT22;1911;53.768;11.474;2022-10-16T02:34:39;13.30;99.90
3792;DHT22;1911;53.768;11.474;2022-10-16T02:37:05;13.30;99.90
3792;DHT22;1911;53.768;11.474;2022-10-16T02:39:32;13.20;99.90
3792;DHT22;1911;53.768;11.474;2022-10-16T02:41:59;13.20;99.90
3792;DHT22;1911;53.768;11.474;2022-10-16T02:44:25;13.20;99.90
3792;DHT22;1911;53.768;11.474;2022-10-16T02:46:50;13.10;99.90
3792;DHT22;1911;53.768;11.474;2022-10-16T02:49:16;13.20;99.90
3792;DHT22;1911;53.768;11.474;2022-10-16T02:51:43;13.20;99.90
3792;DHT22;1911;53.768;11.474;2022-10-16T02:54:08;13.10;99.90
3792;DHT22;1911;53.768;11.474;2022-10-16T02:56:34;13.10;99.90
3792;DHT22;1911;53.768;11.474;2022-10-16T02:58:59;13.10;99.90
3792;DHT22;1911;53.768;11.474;2022-10-16T03:01:25;13.10;99.90
3792;DHT22;1911;53.768;11.474;2022-10-16T03:03:51;13.00;99.90
3792;DHT22;1911;53.768;11.474;2022-10-16T03:06:16;13.00;99.90
3792;DHT22;1911;53.768;11.474;2022-10-16T03:08:42;13.10;99.90
3792;DHT22;1911;53.768;11.474;2022-10-16T03:11:08;13.00;99.90
3792;DHT22;1911;53.768;11.474;2022-10-16T03:13:33;13.00;99.90
3792;DHT22;1911;53.768;11.474;2022-10-16T03:15:59;13.00;99.90
3792;DHT22;1911;53.768;11.474;2022-10-16T03:18:25;13.00;99.90
3792;DHT22;1911;53.768;11.474;2022-10-16T03:20:50;13.00;99.90
3792;DHT22;1911;53.768;11.474;2022-10-16T03:23:16;13.00;99.90
3792;DHT22;1911;53.768;11.474;2022-10-16T03:25:41;13.00;99.90
3792;DHT22;1911;53.768;11.474;2022-10-16T03:28:07;12.90;99.90
3792;DHT22;1911;53.768;11.474;2022-10-16T03:30:33;12.90;99.90
3792;DHT22;1911;53.768;11.474;2022-10-16T03:32:58;12.90;99.90
3792;DHT22;1911;53.768;11.474;2022-10-16T03:35:24;12.90;99.90
3792;DHT22;1911;53.768;11.474;2022-10-16T03:37:50;12.90;99.90
3792;DHT22;1911;53.768;11.474;2022-10-16T03:40:16;12.90;99.90
3792;DHT22;1911;53.768;11.474;2022-10-16T03:42:43;12.90;99.90
3792;DHT22;1911;53.768;11.474;2022-10-16T03:45:09;12.80;99.90
3792;DHT22;1911;53.768;11.474;2022-10-16T03:47:35;12.80;99.90
3792;DHT22;1911;53.768;11.474;2022-10-16T03:50:01;12.80;99.90
3792;DHT22;1911;53.768;11.474;2022-10-16T03:52:26;12.80;99.90
3792;DHT22;1911;53.768;11.474;2022-10-16T03:54:52;12.80;99.90
3792;DHT22;1911;53.768;11.474;2022-10-16T03:57:17;12.80;99.90
3792;DHT22;1911;53.768;11.474;2022-10-16T03:59:43;12.80;99.90
3792;DHT22;1911;53.768;11.474;2022-10-16T04:02:09;12.70;99.90
3792;DHT22;1911;53.768;11.474;2022-10-16T04:04:35;12.80;99.90
3792;DHT22;1911;53.768;11.474;2022-10-16T04:07:01;12.70;99.90
3792;DHT22;1911;53.768;11.474;2022-10-16T04:09:27;12.70;99.90
3792;DHT22;1911;53.768;11.474;2022-10-16T04:11:52;12.70;99.90
3792;DHT22;1911;53.768;11.474;2022-10-16T04:14:18;12.70;99.90
3792;DHT22;1911;53.768;11.474;2022-10-16T04:16:44;12.70;99.90
3792;DHT22;1911;53.768;11.474;2022-10-16T04:19:10;12.70;99.90
3792;DHT22;1911;53.768;11.474;2022-10-16T04:21:36;12.70;99.90
3792;DHT22;1911;53.768;11.474;2022-10-16T04:24:02;12.60;99.90
3792;DHT22;1911;53.768;11.474;2022-10-16T04:26:28;12.60;99.90
3792;DHT22;1911;53.768;11.474;2022-10-16T04:28:53;12.60;99.90
3792;DHT22;1911;53.768;11.474;2022-10-16T04:31:19;12.50;99.90
3792;DHT22;1911;53.768;11.474;2022-10-16T04:33:45;12.50;99.90
3792;DHT22;1911;53.768;11.474;2022-10-16T04:36:11;12.40;99.90
3792;DHT22;1911;53.768;11.474;2022-10-16T04:38:37;12.40;99.90
3792;DHT22;1911;53.768;11.474;2022-10-16T04:41:03;12.40;99.90
3792;DHT22;1911;53.768;11.474;2022-10-16T04:43:29;12.40;99.90
3792;DHT22;1911;53.768;11.474;2022-10-16T04:45:55;12.40;99.90
3792;DHT22;1911;53.768;11.474;2022-10-16T04:48:22;12.40;99.90
3792;DHT22;1911;53.768;11.474;2022-10-16T04:50:47;12.40;99.90
3792;DHT22;1911;53.768;11.474;2022-10-16T04:53:13;12.40;99.90
3792;DHT22;1911;53.768;11.474;2022-10-16T04:55:39;12.40;99.90
3792;DHT22;1911;53.768;11.474;2022-10-16T04:58:05;12.40;99.90
3792;DHT22;1911;53.768;11.474;2022-10-16T05:00:31;12.40;99.90
3792;DHT22;1911;53.768;11.474;2022-10-16T05:02:56;12.40;99.90
3792;DHT22;1911;53.768;11.474;2022-10-16T05:05:24;12.40;99.90
3792;DHT22;1911;53.768;11.474;2022-10-16T05:07:53;12.30;99.90
3792;DHT22;1911;53.768;11.474;2022-10-16T05:10:19;12.30;99.90
3792;DHT22;1911;53.768;11.474;2022-10-16T05:12:45;12.30;99.90
3792;DHT22;1911;53.768;11.474;2022-10-16T05:15:11;12.30;99.90
3792;DHT22;1911;53.768;11.474;2022-10-16T05:17:36;12.30;99.90
3792;DHT22;1911;53.768;11.474;2022-10-16T05:20:02;12.30;99.90
3792;DHT22;1911;53.768;11.474;2022-10-16T05:22:28;12.20;99.90
3792;DHT22;1911;53.768;11.474;2022-10-16T05:24:54;12.20;99.90
3792;DHT22;1911;53.768;11.474;2022-10-16T05:27:20;12.30;99.90
3792;DHT22;1911;53.768;11.474;2022-10-16T05:29:46;12.20;99.90
3792;DHT22;1911;53.768;11.474;2022-10-16T05:32:13;12.20;99.90
3792;DHT22;1911;53.768;11.474;2022-10-16T05:34:38;12.20;99.90
3792;DHT22;1911;53.768;11.474;2022-10-16T05:37:04;12.20;99.90
3792;DHT22;1911;53.768;11.474;2022-10-16T05:39:30;12.20;99.90
3792;DHT22;1911;53.768;11.474;2022-10-16T05:41:55;12.20;99.90
3792;DHT22;1911;53.768;11.474;2022-10-16T05:44:21;12.20;99.90
3792;DHT22;1911;53.768;11.474;2022-10-16T05:46:47;12.10;99.90
3792;DHT22;1911;53.768;11.474;2022-10-16T05:51:54;12.20;99.90
3792;DHT22;1911;53.768;11.474;2022-10-16T05:54:19;12.20;99.90
3792;DHT22;1911;53.768;11.474;2022-10-16T05:56:45;12.20;99.90
3792;DHT22;1911;53.768;11.474;2022-10-16T05:59:10;12.20;99.90
3792;DHT22;1911;53.768;11.474;2022-10-16T06:01:36;12.30;99.90
3792;DHT22;1911;53.768;11.474;2022-10-16T06:04:02;12.30;99.90
3792;DHT22;1911;53.768;11.474;2022-10-16T06:06:30;12.20;99.90
3792;DHT22;1911;53.768;11.474;2022-10-16T06:08:56;12.30;99.90
3792;DHT22;1911;53.768;11.474;2022-10-16T06:11:25;12.30;99.90
3792;DHT22;1911;53.768;11.474;2022-10-16T06:13:52;12.30;99.90
3792;DHT22;1911;53.768;11.474;2022-10-16T06:16:18;12.40;99.90
3792;DHT22;1911;53.768;11.474;2022-10-16T06:18:45;12.40;99.90
3792;DHT22;1911;53.768;11.474;2022-10-16T06:21:38;12.40;99.90
3792;DHT22;1911;53.768;11.474;2022-10-16T07:12:36;12.50;99.90
3792;DHT22;1911;53.768;11.474;2022-10-16T07:15:01;12.50;99.90
3792;DHT22;1911;53.768;11.474;2022-10-16T07:17:27;12.60;99.90
3792;DHT22;1911;53.768;11.474;2022-10-16T07:19:53;12.80;99.90
3792;DHT22;1911;53.768;11.474;2022-10-16T07:22:20;13.00;99.90
3792;DHT22;1911;53.768;11.474;2022-10-16T07:24:46;13.10;99.90
3792;DHT22;1911;53.768;11.474;2022-10-16T07:27:11;13.20;99.90
3792;DHT22;1911;53.768;11.474;2022-10-16T07:29:37;13.20;99.90
3792;DHT22;1911;53.768;11.474;2022-10-16T07:32:03;13.00;99.90
3792;DHT22;1911;53.768;11.474;2022-10-16T07:34:31;12.90;99.90
3792;DHT22;1911;53.768;11.474;2022-10-16T07:36:57;12.70;99.90
3792;DHT22;1911;53.768;11.474;2022-10-16T07:39:22;12.70;99.90
3792;DHT22;1911;53.768;11.474;2022-10-16T07:41:48;12.60;99.90
3792;DHT22;1911;53.768;11.474;2022-10-16T07:44:15;12.60;99.90
3792;DHT22;1911;53.768;11.474;2022-10-16T07:46:40;12.50;99.90
3792;DHT22;1911;53.768;11.474;2022-10-16T07:49:06;12.50;99.90
3792;DHT22;1911;53.768;11.474;2022-10-16T07:51:32;12.50;99.90
3792;DHT22;1911;53.768;11.474;2022-10-16T07:53:57;12.50;99.90
3792;DHT22;1911;53.768;11.474;2022-10-16T07:56:23;12.50;99.90
3792;DHT22;1911;53.768;11.474;2022-10-16T07:58:50;12.50;99.90
3792;DHT22;1911;53.768;11.474;2022-10-16T08:01:16;12.70;99.90
3792;DHT22;1911;53.768;11.474;2022-10-16T08:03:43;12.70;99.90
3792;DHT22;1911;53.768;11.474;2022-10-16T08:06:09;12.80;99.90
3792;DHT22;1911;53.768;11.474;2022-10-16T08:08:34;12.90;99.90
3792;DHT22;1911;53.768;11.474;2022-10-16T08:11:00;13.00;99.90
3792;DHT22;1911;53.768;11.474;2022-10-16T08:13:29;13.20;99.90
3792;DHT22;1911;53.768;11.474;2022-10-16T08:15:55;13.20;99.90
3792;DHT22;1911;53.768;11.474;2022-10-16T08:18:21;13.30;99.90
3792;DHT22;1911;53.768;11.474;2022-10-16T08:20:47;13.40;99.90
3792;DHT22;1911;53.768;11.474;2022-10-16T08:23:13;13.50;99.90
3792;DHT22;1911;53.768;11.474;2022-10-16T08:25:39;13.60;99.90
3792;DHT22;1911;53.768;11.474;2022-10-16T08:28:06;13.50;99.90
3792;DHT22;1911;53.768;11.474;2022-10-16T08:30:33;13.70;99.90
3792;DHT22;1911;53.768;11.474;2022-10-16T08:32:59;13.80;99.90
3792;DHT22;1911;53.768;11.474;2022-10-16T08:35:24;14.00;99.90
3792;DHT22;1911;53.768;11.474;2022-10-16T08:37:50;14.10;99.90
3792;DHT22;1911;53.768;11.474;2022-10-16T08:40:27;14.30;99.90
3792;DHT22;1911;53.768;11.474;2022-10-16T08:43:26;14.40;99.90
3792;DHT22;1911;53.768;11.474;2022-10-16T08:46:24;14.70;99.90
3792;DHT22;1911;53.768;11.474;2022-10-16T08:48:57;14.90;99.90
3792;DHT22;1911;53.768;11.474;2022-10-16T08:51:27;15.20;99.90
3792;DHT22;1911;53.768;11.474;2022-10-16T08:54:28;15.40;92.40
3792;DHT22;1911;53.768;11.474;2022-10-16T08:56:50;15.30;95.00
3792;DHT22;1911;53.768;11.474;2022-10-16T08:59:16;15.40;92.90
3792;DHT22;1911;53.768;11.474;2022-10-16T09:01:46;15.40;99.90
3792;DHT22;1911;53.768;11.474;2022-10-16T09:07:27;15.50;99.90
3792;DHT22;1911;53.768;11.474;2022-10-16T09:10:15;15.60;99.90
3792;DHT22;1911;53.768;11.474;2022-10-16T09:13:10;16.00;52.00
3792;DHT22;1911;53.768;11.474;2022-10-16T09:16:01;16.90;1.00
3792;DHT22;1911;53.768;11.474;2022-10-16T09:19:03;17.50;99.90
3792;DHT22;1911;53.768;11.474;2022-10-16T09:21:35;17.60;66.10
3792;DHT22;1911;53.768;11.474;2022-10-16T09:24:27;17.70;1.00
3792;DHT22;1911;53.768;11.474;2022-10-16T09:26:53;17.40;1.00
3792;DHT22;1911;53.768;11.474;2022-10-16T09:29:20;17.00;99.90
3792;DHT22;1911;53.768;11.474;2022-10-16T09:31:46;16.80;1.00
3792;DHT22;1911;53.768;11.474;2022-10-16T09:36:56;17.10;99.90
3792;DHT22;1911;53.768;11.474;2022-10-16T09:39:22;17.30;99.90
3792;DHT22;1911;53.768;11.474;2022-10-16T09:41:48;17.40;99.90
3792;DHT22;1911;53.768;11.474;2022-10-16T09:44:28;17.20;99.90
3792;DHT22;1911;53.768;11.474;2022-10-16T09:47:16;17.00;99.90
3792;DHT22;1911;53.768;11.474;2022-10-16T09:50:00;17.10;99.90
3792;DHT22;1911;53.768;11.474;2022-10-16T09:52:37;17.10;99.90
3792;DHT22;1911;53.768;11.474;2022-10-16T09:55:17;17.10;99.90
3792;DHT22;1911;53.768;11.474;2022-10-16T09:57:53;17.10;99.90
3792;DHT22;1911;53.768;11.474;2022-10-16T10:00:20;17.10;99.90
3792;DHT22;1911;53.768;11.474;2022-10-16T10:02:46;17.00;99.90
3792;DHT22;1911;53.768;11.474;2022-10-16T10:05:24;17.10;99.90
3792;DHT22;1911;53.768;11.474;2022-10-16T10:08:01;17.10;99.90
3792;DHT22;1911;53.768;11.474;2022-10-16T10:10:33;17.20;99.90
3792;DHT22;1911;53.768;11.474;2022-10-16T10:12:59;17.20;99.90
3792;DHT22;1911;53.768;11.474;2022-10-16T10:15:34;17.30;99.90
3792;DHT22;1911;53.768;11.474;2022-10-16T10:18:01;17.50;99.90
3792;DHT22;1911;53.768;11.474;2022-10-16T10:20:29;17.50;99.90
3792;DHT22;1911;53.768;11.474;2022-10-16T10:22:56;17.60;99.90
3792;DHT22;1911;53.768;11.474;2022-10-16T10:25:44;17.60;1.00
3792;DHT22;1911;53.768;11.474;2022-10-16T10:28:24;17.60;99.90
3792;DHT22;1911;53.768;11.474;2022-10-16T10:36:37;17.80;1.00
3792;DHT22;1911;53.768;11.474;2022-10-16T10:39:13;17.80;1.00
3792;DHT22;1911;53.768;11.474;2022-10-16T10:47:38;18.00;99.90
3792;DHT22;1911;53.768;11.474;2022-10-16T10:50:18;18.10;1.00
3792;DHT22;1911;53.768;11.474;2022-10-16T10:52:52;18.20;99.90
3792;DHT22;1911;53.768;11.474;2022-10-16T11:00:46;18.10;99.90
3792;DHT22;1911;53.768;11.474;2022-10-16T11:06:22;18.20;1.00
3792;DHT22;1911;53.768;11.474;2022-10-16T11:09:09;18.30;99.90
3792;DHT22;1911;53.768;11.474;2022-10-16T11:11:46;18.30;1.00
3792;DHT22;1911;53.768;11.474;2022-10-16T11:14:23;18.30;1.00
3792;DHT22;1911;53.768;11.474;2022-10-16T11:17:00;18.40;1.00
3792;DHT22;1911;53.768;11.474;2022-10-16T11:19:46;18.30;99.90
3792;DHT22;1911;53.768;11.474;2022-10-16T11:22:42;18.20;1.00
3792;DHT22;1911;53.768;11.474;2022-10-16T11:25:36;18.00;1.00
3792;DHT22;1911;53.768;11.474;2022-10-16T11:28:12;18.10;99.90
3792;DHT22;1911;53.768;11.474;2022-10-16T11:33:53;18.20;99.90
3792;DHT22;1911;53.768;11.474;2022-10-16T11:36:39;18.30;1.00
3792;DHT22;1911;53.768;11.474;2022-10-16T11:49:40;17.90;1.00
3792;DHT22;1911;53.768;11.474;2022-10-16T11:52:12;18.00;99.90
3792;DHT22;1911;53.768;11.474;2022-10-16T11:57:29;17.90;99.90
3792;DHT22;1911;53.768;11.474;2022-10-16T12:00:08;17.80;99.90
3792;DHT22;1911;53.768;11.474;2022-10-16T12:07:41;18.10;99.90
3792;DHT22;1911;53.768;11.474;2022-10-16T12:10:23;18.10;99.90
3792;DHT22;1911;53.768;11.474;2022-10-16T12:12:49;18.10;99.90
3792;DHT22;1911;53.768;11.474;2022-10-16T12:15:25;17.90;1.00
3792;DHT22;1911;53.768;11.474;2022-10-16T12:17:52;17.80;99.90
3792;DHT22;1911;53.768;11.474;2022-10-16T12:20:19;17.80;99.90
3792;DHT22;1911;53.768;11.474;2022-10-16T12:22:51;17.90;99.90
3792;DHT22;1911;53.768;11.474;2022-10-16T12:25:36;17.90;1.00
3792;DHT22;1911;53.768;11.474;2022-10-16T12:30:36;17.70;8.90
3792;DHT22;1911;53.768;11.474;2022-10-16T12:33:19;17.60;1.00
3792;DHT22;1911;53.768;11.474;2022-10-16T12:35:46;17.70;99.90
3792;DHT22;1911;53.768;11.474;2022-10-16T12:38:26;17.80;1.00
3792;DHT22;1911;53.768;11.474;2022-10-16T12:41:06;18.00;99.90
3792;DHT22;1911;53.768;11.474;2022-10-16T12:43:44;18.10;1.00
3792;DHT22;1911;53.768;11.474;2022-10-16T12:48:37;17.90;1.00
3792;DHT22;1911;53.768;11.474;2022-10-16T12:51:40;17.80;1.00
3792;DHT22;1911;53.768;11.474;2022-10-16T12:54:18;17.80;1.00
3792;DHT22;1911;53.768;11.474;2022-10-16T13:05:46;18.10;1.00
3792;DHT22;1911;53.768;11.474;2022-10-16T13:08:56;18.00;1.00
3792;DHT22;1911;53.768;11.474;2022-10-16T13:11:45;18.20;1.00
3792;DHT22;1911;53.768;11.474;2022-10-16T13:14:31;18.10;1.00
3792;DHT22;1911;53.768;11.474;2022-10-16T13:17:20;18.00;1.00
3792;DHT22;1911;53.768;11.474;2022-10-16T13:20:15;17.80;99.90
3792;DHT22;1911;53.768;11.474;2022-10-16T13:25:34;17.80;99.90
3792;DHT22;1911;53.768;11.474;2022-10-16T13:28:06;17.70;99.90
3792;DHT22;1911;53.768;11.474;2022-10-16T13:30:43;17.60;99.90
3792;DHT22;1911;53.768;11.474;2022-10-16T13:33:17;17.60;99.90
3792;DHT22;1911;53.768;11.474;2022-10-16T13:35:56;17.60;99.90
3792;DHT22;1911;53.768;11.474;2022-10-16T13:38:32;17.60;99.90
3792;DHT22;1911;53.768;11.474;2022-10-16T13:41:04;17.60;99.90
3792;DHT22;1911;53.768;11.474;2022-10-16T13:46:06;17.80;99.90
3792;DHT22;1911;53.768;11.474;2022-10-16T13:48:33;17.80;99.90
3792;DHT22;1911;53.768;11.474;2022-10-16T13:53:34;17.70;99.90
3792;DHT22;1911;53.768;11.474;2022-10-16T13:56:03;17.60;99.90
3792;DHT22;1911;53.768;11.474;2022-10-16T13:58:29;17.60;99.90
3792;DHT22;1911;53.768;11.474;2022-10-16T14:00:58;17.50;99.90
3792;DHT22;1911;53.768;11.474;2022-10-16T14:03:24;17.50;99.90
3792;DHT22;1911;53.768;11.474;2022-10-16T14:05:55;17.40;99.90
3792;DHT22;1911;53.768;11.474;2022-10-16T14:08:23;17.30;99.90
3792;DHT22;1911;53.768;11.474;2022-10-16T14:10:52;17.30;99.90
3792;DHT22;1911;53.768;11.474;2022-10-16T14:13:39;17.30;99.90
3792;DHT22;1911;53.768;11.474;2022-10-16T14:16:09;17.30;99.90
3792;DHT22;1911;53.768;11.474;2022-10-16T14:18:37;17.20;99.90
3792;DHT22;1911;53.768;11.474;2022-10-16T14:21:05;17.10;99.90
3792;DHT22;1911;53.768;11.474;2022-10-16T14:23:35;17.10;99.90
3792;DHT22;1911;53.768;11.474;2022-10-16T14:28:34;17.00;99.90
3792;DHT22;1911;53.768;11.474;2022-10-16T14:31:02;17.00;99.90
3792;DHT22;1911;53.768;11.474;2022-10-16T14:33:40;17.10;99.90
3792;DHT22;1911;53.768;11.474;2022-10-16T14:36:13;17.20;99.90
3792;DHT22;1911;53.768;11.474;2022-10-16T14:38:41;17.30;99.90
3792;DHT22;1911;53.768;11.474;2022-10-16T14:41:07;17.30;99.90
3792;DHT22;1911;53.768;11.474;2022-10-16T14:43:36;17.20;99.90
3792;DHT22;1911;53.768;11.474;2022-10-16T14:46:23;17.10;99.90
3792;DHT22;1911;53.768;11.474;2022-10-16T14:49:13;17.00;99.90
3792;DHT22;1911;53.768;11.474;2022-10-16T14:51:41;16.90;99.90
3792;DHT22;1911;53.768;11.474;2022-10-16T14:54:12;16.90;99.90
3792;DHT22;1911;53.768;11.474;2022-10-16T14:56:57;16.90;99.90
3792;DHT22;1911;53.768;11.474;2022-10-16T14:59:40;17.00;99.90
3792;DHT22;1911;53.768;11.474;2022-10-16T15:02:29;17.00;99.90
3792;DHT22;1911;53.768;11.474;2022-10-16T15:04:55;17.00;99.90
3792;DHT22;1911;53.768;11.474;2022-10-16T15:07:21;17.00;99.90
3792;DHT22;1911;53.768;11.474;2022-10-16T15:09:47;17.00;99.90
3792;DHT22;1911;53.768;11.474;2022-10-16T15:12:13;17.00;99.90
3792;DHT22;1911;53.768;11.474;2022-10-16T15:14:39;17.00;99.90
3792;DHT22;1911;53.768;11.474;2022-10-16T15:17:04;16.90;99.90
3792;DHT22;1911;53.768;11.474;2022-10-16T15:19:30;16.90;99.90
3792;DHT22;1911;53.768;11.474;2022-10-16T15:21:56;16.90;99.90
3792;DHT22;1911;53.768;11.474;2022-10-16T15:24:22;16.80;99.90
3792;DHT22;1911;53.768;11.474;2022-10-16T15:26:47;16.70;99.90
3792;DHT22;1911;53.768;11.474;2022-10-16T15:29:14;16.70;99.90
3792;DHT22;1911;53.768;11.474;2022-10-16T15:31:39;16.60;99.90
3792;DHT22;1911;53.768;11.474;2022-10-16T15:34:09;16.60;99.90
3792;DHT22;1911;53.768;11.474;2022-10-16T15:36:37;16.50;99.90
3792;DHT22;1911;53.768;11.474;2022-10-16T15:39:16;16.40;99.90
3792;DHT22;1911;53.768;11.474;2022-10-16T15:41:43;16.40;1.00
3792;DHT22;1911;53.768;11.474;2022-10-16T15:44:09;16.30;1.00
3792;DHT22;1911;53.768;11.474;2022-10-16T15:46:35;16.20;1.00
3792;DHT22;1911;53.768;11.474;2022-10-16T15:49:02;16.20;1.00
3792;DHT22;1911;53.768;11.474;2022-10-16T15:51:28;16.10;1.00
3792;DHT22;1911;53.768;11.474;2022-10-16T15:57:30;16.00;1.00
3792;DHT22;1911;53.768;11.474;2022-10-16T16:00:01;15.80;1.00
3792;DHT22;1911;53.768;11.474;2022-10-16T16:02:27;15.70;99.90
3792;DHT22;1911;53.768;11.474;2022-10-16T16:04:57;15.60;1.00
3792;DHT22;1911;53.768;11.474;2022-10-16T16:07:36;15.50;99.90
3792;DHT22;1911;53.768;11.474;2022-10-16T16:10:02;15.40;1.00
3792;DHT22;1911;53.768;11.474;2022-10-16T16:12:28;15.30;99.90
3792;DHT22;1911;53.768;11.474;2022-10-16T16:14:54;15.30;99.90
3792;DHT22;1911;53.768;11.474;2022-10-16T16:17:19;15.20;99.90
3792;DHT22;1911;53.768;11.474;2022-10-16T16:19:45;15.20;99.90
3792;DHT22;1911;53.768;11.474;2022-10-16T16:22:11;15.20;99.90
3792;DHT22;1911;53.768;11.474;2022-10-16T16:24:37;15.10;99.90
3792;DHT22;1911;53.768;11.474;2022-10-16T16:27:02;15.10;99.90
3792;DHT22;1911;53.768;11.474;2022-10-16T16:29:44;15.00;99.90
3792;DHT22;1911;53.768;11.474;2022-10-16T16:32:17;15.00;99.90
3792;DHT22;1911;53.768;11.474;2022-10-16T17:29:39;13.80;1.00
3792;DHT22;1911;53.768;11.474;2022-10-16T17:32:04;13.80;99.90
3792;DHT22;1911;53.768;11.474;2022-10-16T17:34:30;13.80;99.90
3792;DHT22;1911;53.768;11.474;2022-10-16T17:36:55;13.70;1.00
3792;DHT22;1911;53.768;11.474;2022-10-16T17:39:21;13.60;5.70
3792;DHT22;1911;53.768;11.474;2022-10-16T17:41:47;13.60;99.90
3792;DHT22;1911;53.768;11.474;2022-10-16T17:44:13;13.60;99.90
3792;DHT22;1911;53.768;11.474;2022-10-16T17:46:45;13.60;1.00
3792;DHT22;1911;53.768;11.474;2022-10-16T17:49:12;13.50;1.00
3792;DHT22;1911;53.768;11.474;2022-10-16T17:51:39;13.30;1.00
3792;DHT22;1911;53.768;11.474;2022-10-16T17:54:05;13.10;1.00
3792;DHT22;1911;53.768;11.474;2022-10-16T17:56:31;13.10;1.00
3792;DHT22;1911;53.768;11.474;2022-10-16T17:58:58;13.00;1.00
3792;DHT22;1911;53.768;11.474;2022-10-16T18:01:28;13.00;1.00
3792;DHT22;1911;53.768;11.474;2022-10-16T18:04:00;13.10;1.00
3792;DHT22;1911;53.768;11.474;2022-10-16T18:06:26;13.20;1.00
3792;DHT22;1911;53.768;11.474;2022-10-16T18:08:53;13.20;1.00
3792;DHT22;1911;53.768;11.474;2022-10-16T18:11:20;13.30;1.00
3792;DHT22;1911;53.768;11.474;2022-10-16T18:13:46;13.20;1.00
3792;DHT22;1911;53.768;11.474;2022-10-16T18:16:13;13.20;1.00
3792;DHT22;1911;53.768;11.474;2022-10-16T18:18:40;13.10;1.00
3792;DHT22;1911;53.768;11.474;2022-10-16T18:21:10;13.00;1.00
3792;DHT22;1911;53.768;11.474;2022-10-16T18:23:37;13.00;1.00
3792;DHT22;1911;53.768;11.474;2022-10-16T18:26:06;12.90;1.00
3792;DHT22;1911;53.768;11.474;2022-10-16T18:28:43;12.90;1.00
3792;DHT22;1911;53.768;11.474;2022-10-16T18:38:51;12.80;99.90
3792;DHT22;1911;53.768;11.474;2022-10-16T19:20:26;12.30;99.90
3792;DHT22;1911;53.768;11.474;2022-10-16T20:25:50;11.80;99.90
3792;DHT22;1911;53.768;11.474;2022-10-16T20:28:20;11.70;99.90
3792;DHT22;1911;53.768;11.474;2022-10-16T20:30:48;11.70;99.90
3792;DHT22;1911;53.768;11.474;2022-10-16T20:33:15;11.70;99.90
3792;DHT22;1911;53.768;11.474;2022-10-16T20:35:48;11.70;99.90
3792;DHT22;1911;53.768;11.474;2022-10-16T20:38:16;11.70;99.90
3792;DHT22;1911;53.768;11.474;2022-10-16T20:40:44;11.70;99.90
3792;DHT22;1911;53.768;11.474;2022-10-16T20:43:15;11.70;99.90
3792;DHT22;1911;53.768;11.474;2022-10-16T20:45:42;11.80;99.90
3792;DHT22;1911;53.768;11.474;2022-10-16T20:48:08;11.80;99.90
3792;DHT22;1911;53.768;11.474;2022-10-16T20:50:36;11.80;99.90
3792;DHT22;1911;53.768;11.474;2022-10-16T20:53:02;11.70;99.90
3792;DHT22;1911;53.768;11.474;2022-10-16T20:55:28;11.70;99.90
3792;DHT22;1911;53.768;11.474;2022-10-16T20:57:54;11.70;99.90
3792;DHT22;1911;53.768;11.474;2022-10-16T21:00:20;11.70;99.90
3792;DHT22;1911;53.768;11.474;2022-10-16T21:02:50;11.70;99.90
3792;DHT22;1911;53.768;11.474;2022-10-16T21:05:16;11.70;99.90
3792;DHT22;1911;53.768;11.474;2022-10-16T21:07:42;11.80;99.90
3792;DHT22;1911;53.768;11.474;2022-10-16T21:10:08;11.80;99.90
3792;DHT22;1911;53.768;11.474;2022-10-16T21:12:34;11.80;99.90
3792;DHT22;1911;53.768;11.474;2022-10-16T21:14:59;11.80;99.90
3792;DHT22;1911;53.768;11.474;2022-10-16T21:17:25;11.80;99.90